createdAt,value
2022-08-03T00:02:47.141Z,21.7
2022-08-03T00:32:04.511Z,21.3
2022-08-03T01:01:33.118Z,20.9
2022-08-03T01:30:27.941Z,20.6
2022-08-03T01:59:16.241Z,20.3
2022-08-03T02:28:40.679Z,20.1
2022-08-03T02:58:02.044Z,19.9
2022-08-03T03:27:17.239Z,19.7
2022-08-03T03:56:10.563Z,19.4
2022-08-03T04:25:33.579Z,19.1
2022-08-03T04:54:58.704Z,19.1
2022-08-03T05:24:27.651Z,19.4
2022-08-03T05:53:56.423Z,20.1
2022-08-03T06:23:21.651Z,20.8
2022-08-03T06:52:40.555Z,21.5
2022-08-03T07:21:22.141Z,22.5
2022-08-03T07:50:46.947Z,23.8
2022-08-03T08:20:00.298Z,25
2022-08-03T08:49:08.643Z,26.1
2022-08-03T09:18:33.590Z,27
2022-08-03T09:47:45.371Z,28.2
2022-08-03T10:16:38.575Z,29.6
2022-08-03T10:46:05.653Z,31.1
2022-08-03T11:15:34.847Z,32.4
2022-08-03T11:44:59.703Z,33.9
2022-08-03T12:14:46.486Z,38.1
2022-08-03T12:43:39.879Z,35.2
2022-08-03T13:12:22.941Z,33.9
2022-08-03T13:41:41.639Z,33.2
2022-08-03T14:11:05.242Z,34.2
2022-08-03T14:40:46.163Z,39.3
2022-08-03T15:10:09.454Z,41.9
2022-08-03T15:39:58.485Z,38.2
2022-08-03T16:08:29.934Z,36.4
2022-08-03T16:37:57.130Z,36.3
2022-08-03T17:06:50.385Z,39.5
2022-08-03T17:36:13.955Z,35.9
2022-08-03T18:05:16.176Z,34
2022-08-03T18:34:15.616Z,32.9
2022-08-03T19:02:49.951Z,31.9
2022-08-03T19:31:59.284Z,30.7
2022-08-03T20:00:38.213Z,29.5
2022-08-03T20:29:19.038Z,28.4
2022-08-03T20:58:26.406Z,27.5
2022-08-03T21:27:42.011Z,26.8
2022-08-03T21:57:06.178Z,26
2022-08-03T22:26:35.787Z,25.7
2022-08-03T22:55:25.338Z,26.2
2022-08-03T23:24:28.506Z,25.7
2022-08-03T23:52:59.605Z,25.1
